Terminal Aerodrome Forecast
Issued by NWS

Home | Current Version | Previous Version | Text Only | Print | Product List | Glossary Off
Versions: 1 2 3 4 5 6 7 8 9 10 11 12 13 14

325
FTUS42 KMHX 181720
TAFOAJ
TAF
KOAJ 181720Z 1818/1918 23009KT P6SM SKC
     FM190100 21005KT P6SM BKN070
     FM191100 VRB04KT P6SM SCT070
      AMD LTD TO CLD VIS AND WIND=

USA.gov is the U.S. government's official web portal to all federal, state and local government web resources and services.